Time;durP1;ratioP1;P1;durP2;ratioP2;P2;SDS_P1;SDS_P2;PMS_P1;PMS_P2;Temp;Humidity;BMP_temperature;BMP_pressure;BME280_temperature;BME280_humidity;BME280_pressure;Samples;Min_cycle;Max_cycle;Signal;HPM_P1;HPM_P2
2021/07/26 00:01:21;;;;;;;14.70;4.90;;;;;;;16.31;97.00;98538.19;5087285;28;20070;-66
2021/07/26 00:03:46;;;;;;;9.13;5.03;;;;;;;16.25;97.03;98533.13;5086103;28;20358;-66
2021/07/26 00:06:12;;;;;;;8.65;5.45;;;;;;;16.24;97.03;98542.03;5091619;28;20119;-66
2021/07/26 00:08:37;;;;;;;10.68;4.35;;;;;;;16.14;96.48;98535.38;5100740;28;20012;-66
2021/07/26 00:11:04;;;;;;;15.23;4.82;;;;;;;16.12;96.85;98537.25;5099076;28;20016;-66
2021/07/26 00:13:29;;;;;;;8.75;4.20;;;;;;;16.09;96.53;98523.22;5099010;28;20017;-66
2021/07/26 00:15:55;;;;;;;10.57;4.38;;;;;;;16.04;96.77;98527.91;5100376;28;20018;-66
2021/07/26 00:18:21;;;;;;;7.95;4.30;;;;;;;15.94;96.45;98522.09;5098671;28;20097;-66
2021/07/26 00:20:46;;;;;;;16.00;4.88;;;;;;;15.94;97.41;98519.44;5100318;28;20378;-66
2021/07/26 00:23:12;;;;;;;15.65;4.65;;;;;;;15.94;97.75;98538.03;5099530;28;20020;-66
2021/07/26 00:25:37;;;;;;;11.45;5.13;;;;;;;16.03;98.13;98521.72;5099749;28;20026;-66
2021/07/26 00:28:03;;;;;;;10.40;5.30;;;;;;;16.02;98.42;98551.84;5087400;28;20016;-66
2021/07/26 00:30:28;;;;;;;11.40;5.18;;;;;;;16.02;98.38;98546.53;5087036;28;20017;-66
2021/07/26 00:32:54;;;;;;;7.97;4.15;;;;;;;16.01;98.58;98539.47;5085901;28;20021;-66
2021/07/26 00:35:19;;;;;;;8.35;3.95;;;;;;;15.98;98.11;98554.69;5085804;28;20020;-66
2021/07/26 00:37:44;;;;;;;11.88;3.67;;;;;;;15.98;97.94;98536.97;5087354;28;20325;-66
2021/07/26 00:40:10;;;;;;;13.18;4.03;;;;;;;15.93;97.52;98530.13;5095541;28;20012;-66
2021/07/26 00:42:36;;;;;;;8.15;4.53;;;;;;;15.93;97.53;98531.00;5085777;28;20023;-66
2021/07/26 00:45:03;;;;;;;11.57;5.30;;;;;;;15.91;97.38;98524.88;5086958;28;20016;-66
2021/07/26 00:47:29;;;;;;;11.57;4.68;;;;;;;15.92;97.83;98513.34;5085735;28;20020;-66
2021/07/26 00:49:55;;;;;;;10.48;4.65;;;;;;;15.89;97.87;98513.47;5086734;28;20088;-66
2021/07/26 00:52:20;;;;;;;9.77;4.95;;;;;;;15.84;98.15;98514.59;5087882;28;20020;-66
2021/07/26 00:54:46;;;;;;;9.90;5.22;;;;;;;15.83;98.39;98503.13;5090476;28;20271;-66
2021/07/26 00:57:12;;;;;;;14.40;5.97;;;;;;;15.87;98.62;98512.69;5090472;28;20024;-66
2021/07/26 00:59:38;;;;;;;14.27;5.90;;;;;;;15.95;98.82;98513.19;5089364;28;20044;-66
2021/07/26 01:02:03;;;;;;;8.93;4.82;;;;;;;15.97;98.29;98516.66;5091468;28;20291;-66
2021/07/26 01:04:29;;;;;;;7.13;4.55;;;;;;;15.99;98.26;98525.44;5096144;28;20087;-66
2021/07/26 01:06:55;;;;;;;8.68;4.30;;;;;;;15.97;97.75;98516.66;5095635;28;20044;-66
2021/07/26 01:09:20;;;;;;;9.52;4.93;;;;;;;15.86;97.61;98513.63;5090199;28;20051;-66
2021/07/26 01:11:46;;;;;;;10.30;4.53;;;;;;;15.88;97.57;98511.75;5088990;28;20230;-66
2021/07/26 01:14:15;;;;;;;13.88;4.35;;;;;;;15.84;97.55;98510.16;5098287;28;20016;-66
2021/07/26 01:16:41;;;;;;;14.10;4.38;;;;;;;15.89;97.61;98521.44;5102097;28;20024;-66
2021/07/26 01:19:06;;;;;;;11.65;4.97;;;;;;;15.86;97.46;98524.22;5103240;28;20016;-66
2021/07/26 01:21:32;;;;;;;10.07;4.82;;;;;;;15.84;97.35;98531.38;5102634;28;20027;-66
2021/07/26 01:23:59;;;;;;;14.52;4.43;;;;;;;15.74;96.82;98522.09;5102245;28;20023;-66
2021/07/26 01:26:26;;;;;;;15.48;5.70;;;;;;;15.84;97.35;98530.50;5103176;28;20020;-66
2021/07/26 01:28:54;;;;;;;14.70;5.00;;;;;;;15.85;97.60;98533.09;5102832;28;20015;-66
2021/07/26 01:31:20;;;;;;;11.57;5.53;;;;;;;15.84;97.85;98535.81;5094532;28;20027;-66
2021/07/26 01:33:46;;;;;;;10.68;5.28;;;;;;;15.85;97.91;98529.59;5088721;28;20213;-66
2021/07/26 01:36:12;;;;;;;8.93;4.72;;;;;;;15.88;97.82;98532.97;5088564;28;20059;-66
2021/07/26 01:38:39;;;;;;;9.77;4.25;;;;;;;15.78;97.45;98526.31;5089625;28;20024;-66
2021/07/26 01:41:07;;;;;;;9.77;5.07;;;;;;;15.74;97.25;98526.50;5088462;28;20020;-66
2021/07/26 01:43:33;;;;;;;12.43;4.78;;;;;;;15.77;97.34;98539.66;5089608;28;20044;-66
2021/07/26 01:46:14;;;;;;;9.07;5.00;;;;;;;15.76;97.17;98533.47;5097233;28;20289;-66
2021/07/26 01:48:39;;;;;;;11.40;4.85;;;;;;;15.68;96.81;98532.94;5096602;28;20019;-66
2021/07/26 01:51:10;;;;;;;16.35;6.53;;;;;;;15.68;96.94;98527.63;5101240;28;20388;-66
2021/07/26 01:53:36;;;;;;;10.40;4.05;;;;;;;15.73;97.06;98533.63;5096841;28;20087;-66
2021/07/26 01:56:01;;;;;;;19.33;4.90;;;;;;;15.67;97.00;98535.66;5102583;28;20051;-66
2021/07/26 01:58:28;;;;;;;9.15;4.00;;;;;;;15.66;96.88;98582.53;5106016;28;20073;-66
2021/07/26 02:00:53;;;;;;;13.80;4.20;;;;;;;15.66;96.68;98563.97;5105460;28;20019;-66
2021/07/26 02:03:19;;;;;;;12.50;5.13;;;;;;;15.51;96.19;98556.66;5087977;28;20027;-66
2021/07/26 02:05:44;;;;;;;9.90;4.50;;;;;;;15.48;96.02;98558.56;5088001;28;20100;-66
2021/07/26 02:08:10;;;;;;;10.90;4.80;;;;;;;15.45;96.03;98548.94;5089179;28;20019;-66
2021/07/26 02:10:36;;;;;;;18.00;4.75;;;;;;;15.37;95.66;98582.00;5089095;28;20080;-66
2021/07/26 02:13:01;;;;;;;11.00;4.30;;;;;;;15.37;96.08;98566.94;5087905;28;20316;-66
2021/07/26 02:15:27;;;;;;;8.07;4.80;;;;;;;15.27;95.99;98576.16;5088829;28;20054;-66
2021/07/26 02:17:52;;;;;;;11.32;4.25;;;;;;;15.34;96.34;98580.28;5088224;28;20024;-66
2021/07/26 02:20:18;;;;;;;14.00;4.80;;;;;;;15.29;96.59;98598.19;5089088;28;20024;-66
2021/07/26 02:22:44;;;;;;;8.15;4.28;;;;;;;15.18;96.47;98652.53;5087919;28;20020;-66
2021/07/26 02:25:10;;;;;;;14.27;4.13;;;;;;;15.18;96.42;98668.44;5088793;28;20271;-65
2021/07/26 02:27:36;;;;;;;10.20;4.20;;;;;;;15.12;96.07;98703.97;5087583;28;20026;-65
2021/07/26 02:30:01;;;;;;;13.45;4.10;;;;;;;15.10;96.03;98704.03;5087504;28;20021;-65
2021/07/26 02:32:27;;;;;;;5.97;3.70;;;;;;;15.01;95.84;98741.50;5087941;28;20031;-65
2021/07/26 02:34:52;;;;;;;15.93;4.05;;;;;;;15.03;96.27;98762.66;5088033;28;20312;-65
2021/07/26 02:37:17;;;;;;;12.85;4.65;;;;;;;15.04;96.32;98799.69;5088558;28;20024;-65
2021/07/26 02:39:43;;;;;;;12.50;4.25;;;;;;;15.01;96.20;98804.25;5087242;28;20020;-65
2021/07/26 02:42:08;;;;;;;11.27;4.28;;;;;;;15.00;96.21;98826.38;5097424;28;20019;-65
2021/07/26 02:44:34;;;;;;;6.07;3.90;;;;;;;14.96;95.91;98845.94;5100725;28;20019;-65
2021/07/26 02:47:00;;;;;;;9.38;3.72;;;;;;;14.99;95.64;98861.72;5101039;28;20024;-65
2021/07/26 02:49:25;;;;;;;9.55;3.80;;;;;;;14.97;95.54;98868.88;5100723;28;20249;-66
2021/07/26 02:51:50;;;;;;;9.88;4.25;;;;;;;14.97;95.59;98906.84;5090751;28;20028;-66
2021/07/26 02:54:16;;;;;;;12.65;4.25;;;;;;;14.98;95.66;98905.06;5087096;28;20401;-66
2021/07/26 02:56:43;;;;;;;12.35;4.38;;;;;;;14.95;95.52;98907.81;5088174;28;20016;-66
2021/07/26 02:59:08;;;;;;;18.17;4.90;;;;;;;14.93;95.85;98910.53;5087054;28;20024;-66
2021/07/26 03:01:34;;;;;;;9.60;4.30;;;;;;;14.99;95.50;98917.41;5100387;28;20028;-66
2021/07/26 03:04:00;;;;;;;13.00;4.35;;;;;;;14.95;94.98;98934.31;5086725;28;20020;-66
2021/07/26 03:06:26;;;;;;;15.15;4.55;;;;;;;14.84;95.17;98953.22;5087867;28;20050;-66
2021/07/26 03:08:51;;;;;;;10.13;4.13;;;;;;;14.69;95.48;98936.94;5087019;28;20012;-66
2021/07/26 03:11:17;;;;;;;10.10;4.20;;;;;;;14.72;96.22;98955.38;5087949;28;20189;-66
2021/07/26 03:13:44;;;;;;;13.27;4.93;;;;;;;14.78;96.77;98979.91;5086230;28;20024;-66
2021/07/26 03:16:11;;;;;;;11.98;5.18;;;;;;;14.80;96.98;98987.81;5086572;28;20042;-66
2021/07/26 03:18:37;;;;;;;9.23;4.60;;;;;;;14.86;96.98;98982.31;5099030;28;20024;-66
2021/07/26 03:21:03;;;;;;;10.90;5.00;;;;;;;14.85;96.97;98991.19;5099683;28;20218;-66
2021/07/26 03:23:29;;;;;;;9.70;5.03;;;;;;;14.92;96.88;98969.75;5094363;28;20030;-67
2021/07/26 03:25:55;;;;;;;13.52;5.40;;;;;;;14.85;96.52;98986.78;5100996;28;20044;-66
2021/07/26 03:28:20;;;;;;;15.48;5.00;;;;;;;14.84;96.43;98989.47;5099524;28;20073;-66
2021/07/26 03:30:46;;;;;;;11.27;5.80;;;;;;;14.80;96.36;98995.75;5100885;28;20020;-66
2021/07/26 03:33:11;;;;;;;13.00;5.40;;;;;;;14.73;96.33;99028.66;5099212;28;20066;-66
2021/07/26 03:35:37;;;;;;;10.18;4.50;;;;;;;14.72;96.18;99027.78;5100764;28;20069;-66
2021/07/26 03:38:03;;;;;;;19.70;6.18;;;;;;;14.71;96.53;99051.66;5100069;28;20020;-66
2021/07/26 03:40:28;;;;;;;13.63;4.93;;;;;;;14.75;96.81;99058.63;5100047;28;20031;-66
2021/07/26 03:42:56;;;;;;;14.55;4.95;;;;;;;14.71;96.40;99109.97;5100531;28;20055;-66
2021/07/26 03:45:21;;;;;;;13.82;4.47;;;;;;;14.60;95.91;99094.41;5091283;28;20021;-66
2021/07/26 03:47:48;;;;;;;14.40;4.75;;;;;;;14.59;95.85;99094.44;5087511;28;20193;-66
2021/07/26 03:50:14;;;;;;;11.43;4.85;;;;;;;14.61;96.11;99129.69;5092631;28;20024;-66
2021/07/26 03:52:43;;;;;;;9.15;4.43;;;;;;;14.56;95.88;99147.50;5101158;28;20322;-66
2021/07/26 03:55:10;;;;;;;7.30;4.43;;;;;;;14.59;96.07;99136.81;5100176;28;20038;-66
2021/07/26 03:57:35;;;;;;;12.45;3.90;;;;;;;14.55;95.60;99158.97;5099789;28;20024;-66
2021/07/26 04:00:00;;;;;;;14.18;4.47;;;;;;;14.45;94.80;99160.13;5097253;28;21195;-66
2021/07/26 04:02:26;;;;;;;10.02;4.30;;;;;;;14.45;94.60;99160.13;5097582;28;20023;-66
2021/07/26 04:04:51;;;;;;;11.32;3.97;;;;;;;14.37;94.40;99045.63;5087394;28;20025;-65
2021/07/26 04:07:23;;;;;;;9.75;4.88;;;;;;;14.31;95.37;99089.03;5087168;28;20047;-66
2021/07/26 04:09:53;;;;;;;12.60;4.97;;;;;;;14.34;96.21;99103.97;5086031;28;20058;-66
2021/07/26 04:12:23;;;;;;;12.48;4.65;;;;;;;14.38;96.59;99140.91;5096641;28;20024;-66
2021/07/26 04:14:48;;;;;;;8.00;4.93;;;;;;;14.37;96.48;99098.59;5083730;28;20039;-66
2021/07/26 04:17:14;;;;;;;8.52;5.05;;;;;;;14.45;96.54;99085.97;5084001;28;20025;-66
2021/07/26 04:19:39;;;;;;;7.45;4.47;;;;;;;14.55;96.34;99113.94;5082453;28;20052;-66
2021/07/26 04:22:04;;;;;;;14.40;4.50;;;;;;;14.58;95.94;99130.66;5083648;28;20315;-66
2021/07/26 04:24:30;;;;;;;10.68;4.32;;;;;;;14.61;95.66;99166.78;5083605;28;20083;-66
2021/07/26 04:26:55;;;;;;;12.48;4.43;;;;;;;14.64;95.09;99222.31;5086953;28;20031;-66
2021/07/26 04:29:21;;;;;;;10.52;4.50;;;;;;;14.70;94.88;99195.66;5087547;28;20338;-66
2021/07/26 04:31:52;;;;;;;8.32;3.90;;;;;;;14.80;94.69;99210.41;5087486;28;20032;-66
2021/07/26 04:34:18;;;;;;;8.38;4.07;;;;;;;14.87;94.25;99105.97;5087468;28;20024;-66
2021/07/26 04:36:43;;;;;;;12.23;3.95;;;;;;;14.95;94.17;99183.50;5087363;28;20025;-66
2021/07/26 04:39:09;;;;;;;8.23;3.97;;;;;;;14.97;94.28;99166.63;5087235;28;20328;-66
2021/07/26 04:41:35;;;;;;;11.77;3.85;;;;;;;14.95;94.19;99170.25;5087293;28;20087;-66
2021/07/26 04:44:01;;;;;;;14.55;4.22;;;;;;;14.92;94.25;99196.81;5087172;28;20328;-66
2021/07/26 04:46:27;;;;;;;8.90;3.80;;;;;;;15.00;93.88;99231.97;5087180;28;20021;-66
2021/07/26 04:48:52;;;;;;;9.88;4.07;;;;;;;15.03;93.99;99218.63;5087155;28;20024;-66
2021/07/26 04:51:18;;;;;;;6.13;3.97;;;;;;;15.12;93.58;99255.47;5087115;28;20074;-66
2021/07/26 04:53:43;;;;;;;15.77;5.53;;;;;;;15.22;93.76;99267.56;5087023;28;20362;-66
2021/07/26 04:56:08;;;;;;;7.50;3.67;;;;;;;15.38;92.78;99374.16;5086999;28;20215;-66
2021/07/26 04:58:34;;;;;;;8.60;4.18;;;;;;;15.89;91.62;99243.50;5086872;28;20338;-66
2021/07/26 05:01:00;;;;;;;14.88;3.63;;;;;;;16.48;90.63;99247.78;5086921;28;20086;-66
2021/07/26 05:03:25;;;;;;;6.90;4.03;;;;;;;16.42;89.39;99232.00;5086846;28;20035;-66
2021/07/26 05:05:51;;;;;;;6.15;3.42;;;;;;;16.41;89.31;99206.34;5086670;28;20052;-66
2021/07/26 05:08:16;;;;;;;10.07;3.72;;;;;;;16.58;88.97;99217.31;5086803;28;20021;-66
2021/07/26 05:10:51;;;;;;;7.65;3.08;;;;;;;17.53;86.67;99189.06;5086727;28;20020;-66
2021/07/26 05:13:16;;;;;;;8.70;3.13;;;;;;;18.29;83.34;99187.72;5086818;28;20093;-66
2021/07/26 05:15:42;;;;;;;18.08;3.58;;;;;;;18.79;81.16;99141.13;5086661;28;20020;-66
2021/07/26 05:18:07;;;;;;;7.47;2.90;;;;;;;19.38;79.50;99133.09;5085453;28;20020;-66
2021/07/26 05:20:34;;;;;;;29.60;4.45;;;;;;;19.55;77.45;99107.34;5086416;28;20048;-66
2021/07/26 05:22:59;;;;;;;12.77;3.00;;;;;;;20.04;77.35;99114.72;5086518;28;20079;-66
2021/07/26 05:25:25;;;;;;;7.95;2.85;;;;;;;20.19;77.35;99105.94;5086524;28;20260;-66
2021/07/26 05:27:50;;;;;;;11.98;3.38;;;;;;;20.54;74.89;99213.81;5086453;28;20027;-66
2021/07/26 05:30:16;;;;;;;12.55;2.95;;;;;;;20.90;74.52;99209.25;5086711;28;20025;-66
2021/07/26 05:32:41;;;;;;;13.25;3.15;;;;;;;20.99;72.47;99118.69;5086393;28;20197;-66
2021/07/26 05:35:07;;;;;;;9.20;2.78;;;;;;;21.28;71.02;98983.22;5086390;28;20047;-66
2021/07/26 05:37:33;;;;;;;7.78;2.80;;;;;;;21.47;71.44;98999.09;5085610;28;20032;-66
2021/07/26 05:39:59;;;;;;;10.20;3.13;;;;;;;21.40;71.60;98960.22;5086404;28;20028;-66
2021/07/26 05:42:24;;;;;;;10.07;3.05;;;;;;;21.73;70.92;98910.03;5086159;28;20048;-66
2021/07/26 05:44:49;;;;;;;10.23;3.33;;;;;;;22.17;71.62;98900.19;5086129;28;20024;-66
2021/07/26 05:47:15;;;;;;;7.15;3.20;;;;;;;22.24;69.93;98906.91;5086067;28;20021;-66
2021/07/26 05:49:43;;;;;;;12.13;3.35;;;;;;;22.27;69.47;98909.41;5086028;28;20263;-66
2021/07/26 05:52:09;;;;;;;8.38;3.70;;;;;;;23.01;68.29;98927.00;5085991;28;20028;-66
2021/07/26 05:54:34;;;;;;;10.80;3.17;;;;;;;23.43;67.18;98912.59;5085926;28;20043;-66
2021/07/26 05:57:03;;;;;;;8.88;4.07;;;;;;;23.22;66.35;98877.22;5085842;28;20054;-66
2021/07/26 05:59:29;;;;;;;13.40;3.47;;;;;;;23.41;68.13;98877.75;5086016;28;20031;-66
2021/07/26 06:01:56;;;;;;;9.10;4.55;;;;;;;24.24;66.67;98915.91;5085838;28;20024;-66
2021/07/26 06:04:23;;;;;;;7.07;3.72;;;;;;;24.31;66.73;98884.03;5085685;28;20025;-66
2021/07/26 06:06:51;;;;;;;7.75;3.75;;;;;;;24.95;63.95;98895.50;5085543;28;20048;-66
2021/07/26 06:09:17;;;;;;;14.00;4.20;;;;;;;25.37;63.28;98901.41;5085626;28;20034;-66
2021/07/26 06:11:44;;;;;;;6.60;3.45;;;;;;;25.66;61.09;98898.25;5085812;28;20245;-66
2021/07/26 06:14:11;;;;;;;7.35;4.10;;;;;;;25.41;63.34;98881.31;5085529;28;20074;-66
2021/07/26 06:16:44;;;;;;;12.85;4.32;;;;;;;25.90;63.64;98895.47;5085476;28;20048;-66
2021/07/26 06:19:10;;;;;;;10.15;4.03;;;;;;;25.98;59.90;98887.69;5085439;28;20070;-66
2021/07/26 06:21:41;;;;;;;9.73;4.03;;;;;;;26.14;58.25;99052.81;5085418;28;20078;-66
2021/07/26 06:24:07;;;;;;;7.25;4.35;;;;;;;26.50;57.84;99452.31;5085427;28;20024;-66
2021/07/26 06:26:32;;;;;;;6.38;4.32;;;;;;;26.71;56.87;99175.31;5085344;28;20091;-66
2021/07/26 06:28:57;;;;;;;7.72;4.30;;;;;;;26.93;56.03;99102.44;5085224;28;20023;-66
2021/07/26 06:31:23;;;;;;;11.18;3.80;;;;;;;26.94;56.43;98952.84;5085218;28;20031;-66
2021/07/26 06:33:48;;;;;;;7.25;4.35;;;;;;;26.66;56.57;98915.53;5085167;28;20020;-66
2021/07/26 06:36:14;;;;;;;9.30;4.15;;;;;;;26.76;57.08;98919.19;5085065;28;20055;-66
2021/07/26 06:38:39;;;;;;;9.38;4.30;;;;;;;27.11;55.77;98876.66;5084971;28;20243;-66
2021/07/26 06:41:06;;;;;;;8.30;4.40;;;;;;;27.53;55.69;98834.41;5084932;28;20025;-67
2021/07/26 06:43:32;;;;;;;6.93;4.43;;;;;;;27.49;56.62;98793.25;5084880;28;20020;-67
2021/07/26 06:45:58;;;;;;;9.18;4.57;;;;;;;27.60;54.29;99225.06;5084864;28;20028;-67
2021/07/26 06:48:24;;;;;;;9.15;4.28;;;;;;;27.87;53.19;99126.34;5084392;28;20096;-67
2021/07/26 06:50:50;;;;;;;10.68;4.22;;;;;;;28.11;53.33;99040.44;5084368;28;20020;-67
2021/07/26 06:53:16;;;;;;;9.93;4.53;;;;;;;28.27;53.08;98994.81;5100555;28;20024;-67
2021/07/26 06:55:42;;;;;;;8.30;4.43;;;;;;;28.59;52.89;98955.00;5084708;28;20077;-67
2021/07/26 06:58:07;;;;;;;6.68;4.30;;;;;;;28.60;52.01;98962.13;5084661;28;20084;-67
2021/07/26 07:00:33;;;;;;;7.38;4.00;;;;;;;28.63;53.68;98829.13;5084546;28;20028;-67
2021/07/26 07:02:59;;;;;;;7.63;4.30;;;;;;;28.66;52.36;98823.44;5084573;28;20024;-67
2021/07/26 07:05:24;;;;;;;11.10;4.18;;;;;;;28.99;52.54;98808.69;5084300;28;20021;-67
2021/07/26 07:07:50;;;;;;;6.28;3.67;;;;;;;29.15;51.45;98817.19;5084566;28;20223;-67
2021/07/26 07:10:15;;;;;;;7.50;3.45;;;;;;;29.39;51.77;98806.75;5084479;28;20019;-67
2021/07/26 07:12:41;;;;;;;8.70;3.92;;;;;;;29.47;49.57;98800.63;5084451;28;20020;-67
2021/07/26 07:15:08;;;;;;;6.13;3.88;;;;;;;29.74;48.38;98789.94;5084395;28;20028;-67
2021/07/26 07:17:34;;;;;;;8.45;3.83;;;;;;;29.60;51.75;98765.91;5084374;28;20020;-67
2021/07/26 07:19:59;;;;;;;7.25;3.72;;;;;;;30.23;47.85;98784.25;5084266;28;20204;-67
2021/07/26 07:22:25;;;;;;;8.80;4.30;;;;;;;30.35;48.08;98764.91;5084306;28;20020;-67
2021/07/26 07:24:50;;;;;;;8.75;3.88;;;;;;;30.18;46.04;98756.69;5084241;28;20016;-67
2021/07/26 07:27:16;;;;;;;7.10;3.58;;;;;;;30.45;47.58;98765.72;5084223;28;20020;-67
2021/07/26 07:29:41;;;;;;;5.90;3.30;;;;;;;29.80;49.15;98738.63;5084179;28;20021;-67
2021/07/26 07:32:11;;;;;;;8.80;3.88;;;;;;;30.24;45.53;98739.81;5084157;28;20021;-67
2021/07/26 07:34:37;;;;;;;9.10;3.85;;;;;;;30.02;46.86;98723.88;5084197;28;20028;-67
2021/07/26 07:37:04;;;;;;;8.10;3.63;;;;;;;30.19;47.15;98725.81;5084120;28;20342;-67
2021/07/26 07:39:30;;;;;;;6.75;3.55;;;;;;;30.57;47.20;98731.06;5084019;28;20092;-67
2021/07/26 07:41:55;;;;;;;11.23;3.50;;;;;;;30.54;46.44;98753.09;5084133;28;20039;-67
2021/07/26 07:44:21;;;;;;;6.07;3.65;;;;;;;30.80;46.91;98764.97;5084008;28;20031;-67
2021/07/26 07:46:46;;;;;;;7.68;3.85;;;;;;;30.45;45.95;98748.56;5084022;28;20024;-67
2021/07/26 07:49:12;;;;;;;7.20;3.55;;;;;;;30.34;47.52;98746.06;5084002;28;20236;-67
2021/07/26 07:51:37;;;;;;;10.90;3.80;;;;;;;30.80;46.00;98751.38;5083966;28;20308;-67
2021/07/26 07:54:03;;;;;;;7.45;3.58;;;;;;;30.11;48.36;98706.66;5083867;28;20021;-67
2021/07/26 07:56:28;;;;;;;6.28;3.97;;;;;;;30.19;48.60;98704.97;5083920;28;20024;-67
2021/07/26 07:58:55;;;;;;;9.32;4.00;;;;;;;30.41;45.38;98714.56;5082685;28;20021;-67
2021/07/26 08:01:31;;;;;;;7.07;3.72;;;;;;;31.03;45.50;98733.59;5086413;28;20084;-67
2021/07/26 08:03:57;;;;;;;5.43;3.47;;;;;;;31.00;45.13;98712.16;5088054;28;20066;-67
2021/07/26 08:06:22;;;;;;;5.28;3.33;;;;;;;31.65;46.20;98728.06;5103577;28;20033;-67
2021/07/26 08:08:47;;;;;;;6.28;3.90;;;;;;;31.92;44.25;98727.94;5087982;28;20299;-67
2021/07/26 08:11:13;;;;;;;6.72;3.35;;;;;;;31.50;42.01;98705.16;5087926;28;20031;-67
2021/07/26 08:13:39;;;;;;;10.55;3.35;;;;;;;29.75;47.83;98640.53;5087847;28;20065;-67
2021/07/26 08:16:05;;;;;;;7.75;3.35;;;;;;;29.21;46.66;98640.38;5087835;28;20027;-67
2021/07/26 08:18:32;;;;;;;7.55;3.70;;;;;;;28.93;49.45;98636.69;5087661;28;20023;-67
2021/07/26 08:20:57;;;;;;;6.93;3.55;;;;;;;28.32;52.60;98629.75;5087697;28;20070;-67
2021/07/26 08:23:23;;;;;;;5.82;3.38;;;;;;;28.51;50.69;98640.63;5087667;28;20246;-67
2021/07/26 08:25:48;;;;;;;7.80;3.63;;;;;;;28.29;50.83;98630.06;5087579;28;20024;-67
2021/07/26 08:28:14;;;;;;;6.20;3.40;;;;;;;28.18;50.05;98627.47;5087603;28;20232;-67
2021/07/26 08:30:40;;;;;;;6.43;3.45;;;;;;;28.17;52.99;98625.75;5087541;28;20019;-67
2021/07/26 08:33:06;;;;;;;6.38;3.72;;;;;;;28.26;50.29;98624.06;5087473;28;20314;-67
2021/07/26 08:35:32;;;;;;;13.93;3.80;;;;;;;28.37;50.04;98624.78;5087407;28;20020;-67
2021/07/26 08:37:57;;;;;;;7.78;3.60;;;;;;;28.00;51.89;98612.88;5087346;28;20029;-67
2021/07/26 08:40:25;;;;;;;6.70;3.88;;;;;;;27.44;54.15;98592.72;5087239;28;20074;-67
2021/07/26 08:42:51;;;;;;;6.55;3.80;;;;;;;26.97;56.38;98571.66;5087291;28;20024;-67
2021/07/26 08:45:18;;;;;;;14.05;4.28;;;;;;;26.59;53.98;98568.66;5087424;28;20024;-67
2021/07/26 08:47:45;;;;;;;8.10;3.72;;;;;;;26.17;57.66;98569.56;5087170;28;20207;-67
2021/07/26 08:50:17;;;;;;;8.80;4.00;;;;;;;26.25;58.48;98567.06;5085986;28;20020;-67
2021/07/26 08:52:45;;;;;;;8.68;4.82;;;;;;;25.93;60.86;98561.63;5087132;28;20025;-67
2021/07/26 08:55:23;;;;;;;11.63;4.95;;;;;;;25.72;62.35;98549.06;5087007;28;20021;-67
2021/07/26 08:57:50;;;;;;;8.30;4.22;;;;;;;25.62;62.18;98551.66;5087071;28;20023;-67
2021/07/26 09:00:19;;;;;;;6.07;4.15;;;;;;;27.47;59.72;98597.00;5086911;28;20081;-67
2021/07/26 09:02:45;;;;;;;12.93;4.28;;;;;;;27.44;57.03;98592.72;5086905;28;20016;-68
2021/07/26 09:05:12;;;;;;;10.05;4.30;;;;;;;27.69;57.04;98591.41;5087055;28;20028;-67
2021/07/26 09:07:42;;;;;;;10.27;4.60;;;;;;;28.29;58.29;98613.81;5086703;28;20286;-67
2021/07/26 09:10:29;;;;;;;9.07;4.20;;;;;;;29.27;52.66;98629.78;5087077;28;20012;-67
2021/07/26 09:12:56;;;;;;;8.15;4.60;;;;;;;28.62;51.53;98594.47;5084498;28;20025;-67
2021/07/26 09:15:23;;;;;;;8.73;4.47;;;;;;;27.54;53.58;98566.56;5086716;28;20338;-67
2021/07/26 09:17:48;;;;;;;11.32;4.85;;;;;;;26.86;58.63;98553.66;5086649;28;20032;-67
2021/07/26 09:20:15;;;;;;;5.82;4.00;;;;;;;28.06;58.98;98590.66;5085398;28;20323;-67
2021/07/26 09:22:42;;;;;;;6.28;4.57;;;;;;;28.54;54.20;98586.19;5086548;28;20073;-67
2021/07/26 09:25:21;;;;;;;6.93;4.30;;;;;;;29.57;53.36;98635.97;5086487;28;20024;-67
2021/07/26 09:28:01;;;;;;;8.68;4.35;;;;;;;29.52;50.27;98671.72;5086505;28;20020;-67
2021/07/26 09:30:49;;;;;;;7.97;4.30;;;;;;;29.23;53.52;98648.38;5086432;28;20021;-67
2021/07/26 09:33:28;;;;;;;15.52;4.80;;;;;;;28.64;54.02;98625.00;5086406;28;20324;-67
2021/07/26 09:36:23;;;;;;;9.02;4.43;;;;;;;28.25;55.67;98601.53;5086415;28;20316;-67
2021/07/26 09:38:48;;;;;;;8.63;4.45;;;;;;;29.45;52.64;98650.75;5086242;28;20031;-67
2021/07/26 09:41:17;;;;;;;14.57;4.35;;;;;;;29.75;49.03;98639.69;5086243;28;20028;-67
2021/07/26 09:43:43;;;;;;;7.28;3.65;;;;;;;29.17;51.16;98604.56;5086173;28;20025;-67
2021/07/26 09:46:22;;;;;;;6.47;3.60;;;;;;;29.00;50.46;98599.88;5084968;28;20029;-67
2021/07/26 09:49:06;;;;;;;7.50;3.83;;;;;;;29.18;52.96;98595.44;5086096;28;20038;-67
2021/07/26 09:51:32;;;;;;;6.88;3.97;;;;;;;30.24;48.68;98632.03;5086027;28;20052;-67
2021/07/26 09:53:57;;;;;;;5.70;3.80;;;;;;;28.93;50.40;98570.78;5085990;28;20028;-67
2021/07/26 09:56:29;;;;;;;7.68;3.70;;;;;;;29.20;52.76;98585.28;5085961;28;20020;-68
2021/07/26 09:58:54;;;;;;;;;;;;;;;29.49;50.30;98584.34;5086551;28;20016;-67
2021/07/26 10:01:20;;;;;;;9.40;4.00;;;;;;;29.50;51.30;98586.06;5085861;28;19904;-67
2021/07/26 10:03:46;;;;;;;5.38;3.40;;;;;;;29.40;51.25;98987.50;5085727;28;20270;-67
2021/07/26 10:06:13;;;;;;;9.68;3.65;;;;;;;28.16;51.87;98759.34;5085563;28;20066;-67
2021/07/26 10:08:41;;;;;;;5.07;3.33;;;;;;;28.44;54.20;98720.72;5085696;28;20224;-67
2021/07/26 10:11:09;;;;;;;10.57;2.83;;;;;;;29.58;50.92;98719.09;5085663;28;20251;-67
2021/07/26 10:13:38;;;;;;;5.95;3.00;;;;;;;29.17;51.71;98710.28;5085564;28;20018;-67
2021/07/26 10:16:04;;;;;;;8.68;3.30;;;;;;;29.71;48.62;98670.84;5085561;28;20055;-67
2021/07/26 10:18:30;;;;;;;8.70;3.40;;;;;;;30.00;49.60;98655.28;5085392;28;20027;-67
2021/07/26 10:21:05;;;;;;;8.63;3.08;;;;;;;29.64;48.02;98615.47;5085458;28;20024;-67
2021/07/26 10:23:42;;;;;;;5.55;3.20;;;;;;;28.62;51.14;98583.63;5085218;28;20016;-67
2021/07/26 10:26:10;;;;;;;6.22;3.42;;;;;;;28.91;50.29;98562.78;5085387;28;20024;-67
2021/07/26 10:28:43;;;;;;;5.05;3.10;;;;;;;28.37;51.97;98548.97;5085270;28;20261;-67
2021/07/26 10:31:27;;;;;;;4.57;3.00;;;;;;;28.12;50.87;98849.97;5085250;28;20024;-67
2021/07/26 10:34:15;;;;;;;9.25;3.20;;;;;;;28.19;52.46;98810.53;5085165;28;20029;-67
2021/07/26 10:36:41;;;;;;;5.88;3.17;;;;;;;28.15;52.91;98768.47;5085414;28;20027;-67
2021/07/26 10:39:23;;;;;;;7.55;3.08;;;;;;;27.93;51.26;98738.88;5085025;28;20025;-67
2021/07/26 10:41:49;;;;;;;5.45;2.60;;;;;;;27.62;53.08;98701.94;5085017;28;20021;-67
2021/07/26 10:44:17;;;;;;;8.00;3.17;;;;;;;27.95;55.31;98690.91;5084954;28;20078;-67
2021/07/26 10:47:06;;;;;;;5.72;3.10;;;;;;;28.41;52.80;98672.25;5084882;28;20020;-67
2021/07/26 10:49:34;;;;;;;7.53;3.30;;;;;;;28.59;53.63;98643.50;5085159;28;20078;-67
2021/07/26 10:52:00;;;;;;;6.75;3.15;;;;;;;28.64;50.61;98619.56;5084831;28;20052;-67
2021/07/26 10:54:35;;;;;;;8.63;3.20;;;;;;;28.19;51.17;98607.50;5084858;28;20031;-67
2021/07/26 10:57:04;;;;;;;5.88;3.45;;;;;;;28.63;53.62;98612.44;5084759;28;20097;-67
2021/07/26 10:59:30;;;;;;;5.63;2.83;;;;;;;29.10;50.09;98600.72;5084625;28;20020;-67
2021/07/26 11:02:01;;;;;;;5.63;3.42;;;;;;;29.11;49.22;98586.16;5084645;28;20021;-67
2021/07/26 11:04:37;;;;;;;9.98;2.95;;;;;;;29.23;48.99;98585.00;5084520;28;20026;-67
2021/07/26 11:07:07;;;;;;;4.50;2.70;;;;;;;29.30;49.56;98581.69;5084449;28;20040;-67
2021/07/26 11:09:41;;;;;;;9.82;3.50;;;;;;;29.52;49.44;98589.47;5084776;28;20017;-67
2021/07/26 11:12:07;;;;;;;4.28;3.10;;;;;;;29.98;48.22;98592.13;5084469;28;20020;-67
2021/07/26 11:14:33;;;;;;;6.50;3.30;;;;;;;29.76;45.87;98570.81;5084377;28;20020;-67
2021/07/26 11:17:04;;;;;;;6.65;3.38;;;;;;;29.14;47.41;98626.53;5084424;28;20066;-67
2021/07/26 11:19:33;;;;;;;6.60;3.45;;;;;;;29.24;51.57;98581.28;5084394;28;20031;-67
2021/07/26 11:22:04;;;;;;;15.52;3.50;;;;;;;29.55;49.79;98579.19;5084577;28;20091;-67
2021/07/26 11:24:39;;;;;;;8.18;3.88;;;;;;;29.83;51.87;98578.22;5084316;28;20020;-67
2021/07/26 11:27:04;;;;;;;6.47;3.10;;;;;;;29.92;46.72;98573.72;5084525;28;20020;-67
2021/07/26 11:29:30;;;;;;;5.82;2.90;;;;;;;28.90;50.34;98543.97;5084248;28;20024;-67